Terminal Aerodrome Forecast
Issued by NWS

Home | Current Version | Previous Version | Text Only | Print | Product List | Glossary On
Versions: 1 2 3 4 5 6 7 8 9 10 11 12
000
FTUS42 KMLB 032325
TAFLEE
TAF
KLEE 032325Z 0400/0424 09010KT P6SM FEW060
     FM040300 08004KT P6SM SKC
     FM041400 09011KT P6SM SCT050
     FM041700 08015G23KT P6SM BKN050=

USA.gov is the U.S. government's official web portal to all federal, state and local government web resources and services.